Madison, WI (53705)

1:18 AM CDT on November 01, 2014 (GMT -0500)
Hill Farms East | Change Station
CLOSE
Current Station
Personal Weather Station
Location: Madison, WI
Elevation: 974 ft
Nearby Weather Stations

Elev 974 ft 43.07 °N, 89.46 °W | Updated 11 seconds ago

Clear
Clear
30.2 °F
Feels Like 30 °F
N
0.0
Wind Variable Wind from NW

Today
High -- | Low -- °F
--% Chance of Precip.
Yesterday
High -- | Low -- °F
Precip. -- in
7:32 AM 5:49 PM
Waxing Gibbous, 63% visible
Pressure 30.44 in
Visibility 10.0 miles
Clouds Clear
Windchill 30 °F
Dew Point 21 °F
Humidity 67%
Rainfall 0.00 in
Snow Depth Not available.
UV 0 out of 12
Pollen .10 out of 12
Air Quality Not available.
Flu Activity Not available.
METAR KC29 010555Z AUTO 02006KT 10SM CLR M02/M08 A3044 RMK AO1 T10221076 10000 21022 400621022

More Conditions Fewer Conditions

Pressure 30.44 in
Visibility 10.0 miles
Clouds Clear
Windchill 30 °F
Dew Point 21 °F
Humidity 67%
Rainfall 0.00 in
Snow Depth Not available.
UV 0 out of 12
Pollen .10 out of 12
Air Quality Not available.
Flu Activity Not available.
METAR KC29 010555Z AUTO 02006KT 10SM CLR M02/M08 A3044 RMK AO1 T10221076 10000 21022 400621022

More Conditions Fewer Conditions

10-Day Weather Forecast

Almanac

Astronomy

Nov. 01, 2014 Rise Set
Actual Time
Civil Twilight
Nautical Twilight
Astronomical Twilight
Moon
Length of Visible Light
Length of Day
Tomorrow will be .
, % of the Moon is Illuminated

Today's Extremes

State Highs State Lows

Community

WunderPhotos

Upload Photos

1,766,866 photos uploaded!

WunderBlogs® & News

Nearby

Air Quality

  Air Quality AQ Index Pollutant
Not available.

Snow Depth

Station Depth Elevation

Earthquake Activity

City Distance Mag. Time & Date
Minimum magnitude displayed is 2.5.

Coastal Water Temperatures

Place Temperature

Nearby Weather Stations